createdAt,value
2018-01-16T00:02:01.915Z,93.10
2018-01-16T00:04:28.349Z,93.60
2018-01-16T00:06:54.727Z,93.60
2018-01-16T00:09:21.118Z,94.10
2018-01-16T00:11:47.667Z,93.50
2018-01-16T00:14:14.071Z,94.00
2018-01-16T00:16:41.204Z,94.10
2018-01-16T00:19:07.590Z,94.10
2018-01-16T00:21:33.999Z,94.20
2018-01-16T00:24:00.366Z,94.40
2018-01-16T00:26:26.752Z,93.90
2018-01-16T00:28:53.863Z,93.00
2018-01-16T00:31:20.258Z,93.00
2018-01-16T00:33:46.641Z,93.20
2018-01-16T00:36:14.481Z,94.10
2018-01-16T00:38:40.866Z,94.10
2018-01-16T00:41:07.261Z,93.30
2018-01-16T00:43:33.689Z,93.80
2018-01-16T00:46:00.084Z,93.00
2018-01-16T00:48:26.497Z,92.40
2018-01-16T00:50:52.893Z,91.60
2018-01-16T00:53:19.314Z,91.60
2018-01-16T00:55:45.744Z,92.50
2018-01-16T00:58:12.145Z,92.50
2018-01-16T01:00:38.528Z,92.80
2018-01-16T01:03:05.669Z,92.30
2018-01-16T01:05:32.068Z,92.20
2018-01-16T01:07:58.430Z,92.10
2018-01-16T01:10:24.810Z,93.10
2018-01-16T01:12:51.178Z,93.30
2018-01-16T01:15:17.626Z,93.00
2018-01-16T01:17:44.341Z,93.70
2018-01-16T01:20:10.707Z,93.30
2018-01-16T01:22:37.107Z,93.00
2018-01-16T01:25:03.518Z,93.20
2018-01-16T01:27:29.893Z,93.70
2018-01-16T01:29:56.285Z,94.30
2018-01-16T01:32:22.655Z,94.40
2018-01-16T01:34:49.040Z,94.10
2018-01-16T01:37:15.510Z,93.30
2018-01-16T01:39:41.918Z,93.10
2018-01-16T01:42:08.302Z,93.10
2018-01-16T01:44:35.455Z,93.00
2018-01-16T01:47:02.582Z,93.10
2018-01-16T01:49:28.977Z,93.10
2018-01-16T01:51:55.374Z,93.30
2018-01-16T01:54:21.758Z,92.60
2018-01-16T01:56:48.143Z,92.20
2018-01-16T01:59:14.548Z,92.70
2018-01-16T02:01:41.750Z,93.60
2018-01-16T02:04:08.152Z,93.60
2018-01-16T02:06:35.278Z,94.10
2018-01-16T02:09:02.662Z,94.10
2018-01-16T02:11:29.787Z,93.80
2018-01-16T02:13:56.172Z,93.80
2018-01-16T02:16:22.574Z,93.80
2018-01-16T02:18:49.166Z,94.00
2018-01-16T02:21:15.617Z,93.60
2018-01-16T02:23:41.997Z,93.90
2018-01-16T02:26:08.405Z,94.40
2018-01-16T02:28:34.789Z,94.50
2018-01-16T02:31:01.175Z,94.10
2018-01-16T02:33:27.564Z,93.80
2018-01-16T02:35:53.938Z,93.20
2018-01-16T02:38:20.375Z,92.80
2018-01-16T02:40:46.756Z,93.20
2018-01-16T02:43:20.099Z,93.60
2018-01-16T02:45:46.539Z,93.50
2018-01-16T02:48:12.925Z,92.60
2018-01-16T02:50:39.348Z,92.70
2018-01-16T02:53:05.791Z,91.60
2018-01-16T02:55:32.210Z,91.90
2018-01-16T02:57:58.613Z,91.80
2018-01-16T03:00:25.021Z,91.80
2018-01-16T03:02:52.132Z,91.70
2018-01-16T03:05:18.506Z,91.70
2018-01-16T03:07:44.881Z,91.60
2018-01-16T03:10:11.279Z,91.10
2018-01-16T03:12:37.678Z,91.10
2018-01-16T03:15:04.798Z,92.50
2018-01-16T03:17:31.178Z,92.50
2018-01-16T03:19:57.563Z,92.80
2018-01-16T03:22:23.938Z,92.60
2018-01-16T03:25:04.170Z,93.20
2018-01-16T03:27:44.575Z,93.60
2018-01-16T03:30:10.987Z,93.60
2018-01-16T03:32:37.425Z,92.90
2018-01-16T03:35:03.802Z,93.20
2018-01-16T03:37:30.179Z,93.50
2018-01-16T03:39:57.291Z,93.50
2018-01-16T03:42:23.664Z,93.50
2018-01-16T03:44:50.044Z,93.20
2018-01-16T03:47:16.430Z,92.20
2018-01-16T03:49:42.829Z,91.40
2018-01-16T03:52:09.198Z,92.10
2018-01-16T03:54:35.571Z,93.30
2018-01-16T03:57:01.964Z,92.60
2018-01-16T03:59:28.325Z,91.70
2018-01-16T04:01:54.738Z,92.10
2018-01-16T04:04:21.157Z,92.10
2018-01-16T04:06:47.566Z,92.20
2018-01-16T04:09:14.705Z,91.90
2018-01-16T04:11:41.831Z,93.00
2018-01-16T04:14:08.201Z,92.90
2018-01-16T04:16:35.359Z,92.30
2018-01-16T04:19:01.752Z,92.30
2018-01-16T04:21:28.878Z,91.80
2018-01-16T04:23:55.276Z,91.80
2018-01-16T04:26:21.679Z,92.20
2018-01-16T04:28:48.807Z,92.60
2018-01-16T04:31:15.175Z,92.60
2018-01-16T04:33:42.307Z,92.90
2018-01-16T04:36:09.454Z,92.80
2018-01-16T04:38:35.970Z,92.60
2018-01-16T04:41:02.351Z,93.00
2018-01-16T04:43:28.726Z,92.50
2018-01-16T04:45:55.090Z,92.60
2018-01-16T04:48:22.248Z,93.90
2018-01-16T04:50:49.464Z,93.10
2018-01-16T04:53:15.862Z,93.10
2018-01-16T04:55:42.234Z,93.40
2018-01-16T04:58:08.624Z,93.90
2018-01-16T05:00:35.009Z,94.10
2018-01-16T05:05:39.599Z,92.90
2018-01-16T05:08:06.039Z,91.90
2018-01-16T05:10:32.419Z,92.80
2018-01-16T05:12:58.813Z,92.60
2018-01-16T05:15:25.214Z,92.30
2018-01-16T05:17:51.595Z,92.50
2018-01-16T05:20:17.974Z,93.00
2018-01-16T05:22:44.367Z,92.80
2018-01-16T05:25:10.735Z,92.70
2018-01-16T05:27:37.139Z,93.40
2018-01-16T05:30:04.291Z,94.00
2018-01-16T05:32:30.700Z,94.00
2018-01-16T05:34:57.095Z,93.10
2018-01-16T05:37:23.517Z,92.60
2018-01-16T05:39:49.983Z,92.90
2018-01-16T05:42:16.384Z,92.60
2018-01-16T05:44:42.841Z,93.10
2018-01-16T05:47:09.268Z,93.10
2018-01-16T05:49:35.639Z,93.70
2018-01-16T05:52:02.045Z,93.70
2018-01-16T05:54:28.462Z,94.30
2018-01-16T05:56:54.879Z,94.60
2018-01-16T05:59:21.258Z,94.40
2018-01-16T06:01:47.657Z,94.30
2018-01-16T06:04:14.049Z,93.90
2018-01-16T06:06:41.202Z,92.90
2018-01-16T06:09:08.371Z,93.00
2018-01-16T06:11:34.770Z,93.00
2018-01-16T06:14:01.159Z,93.40
2018-01-16T06:16:27.532Z,93.70
2018-01-16T06:18:54.689Z,92.90
2018-01-16T06:21:21.829Z,93.30
2018-01-16T06:23:48.220Z,93.30
2018-01-16T06:26:14.604Z,93.30
2018-01-16T06:28:41.777Z,92.90
2018-01-16T06:31:08.155Z,92.90
2018-01-16T06:33:34.539Z,93.50
2018-01-16T06:36:00.942Z,93.40
2018-01-16T06:38:28.062Z,93.60
2018-01-16T06:40:54.451Z,93.30
2018-01-16T06:43:20.850Z,92.70
2018-01-16T06:45:47.226Z,92.70
2018-01-16T06:48:13.626Z,92.60
2018-01-16T06:50:39.994Z,92.70
2018-01-16T06:53:06.371Z,93.00
2018-01-16T06:55:32.828Z,92.80
2018-01-16T06:57:59.975Z,92.30
2018-01-16T07:00:27.144Z,92.70
2018-01-16T07:02:53.540Z,92.70
2018-01-16T07:05:19.936Z,92.70
2018-01-16T07:07:46.316Z,92.80
2018-01-16T07:10:13.454Z,92.10
2018-01-16T07:12:40.077Z,92.00
2018-01-16T07:15:06.465Z,92.00
2018-01-16T07:17:32.866Z,92.20
2018-01-16T07:20:00.063Z,92.50
2018-01-16T07:22:26.467Z,92.50
2018-01-16T07:24:53.654Z,91.90
2018-01-16T07:27:20.062Z,91.90
2018-01-16T07:29:46.439Z,91.40
2018-01-16T07:32:12.839Z,91.30
2018-01-16T07:34:39.228Z,91.80
2018-01-16T07:37:06.334Z,91.60
2018-01-16T07:39:32.693Z,91.60
2018-01-16T07:41:59.836Z,91.20
2018-01-16T07:44:26.958Z,91.40
2018-01-16T07:46:53.331Z,91.20
2018-01-16T07:49:19.761Z,91.60
2018-01-16T07:51:46.952Z,90.80
2018-01-16T07:54:13.328Z,90.80
2018-01-16T07:56:39.855Z,90.70
2018-01-16T07:59:06.239Z,90.80
2018-01-16T08:01:33.396Z,90.50
2018-01-16T08:03:59.760Z,90.50
2018-01-16T08:06:26.130Z,90.30
2018-01-16T08:08:53.270Z,90.10
2018-01-16T08:11:20.430Z,89.30
2018-01-16T08:13:47.601Z,89.40
2018-01-16T08:16:13.979Z,89.40
2018-01-16T08:18:40.342Z,89.70
2018-01-16T08:21:07.469Z,89.20
2018-01-16T08:23:33.875Z,89.20
2018-01-16T08:26:00.274Z,89.60
2018-01-16T08:28:27.382Z,89.20
2018-01-16T08:30:53.757Z,89.20
2018-01-16T08:33:20.872Z,87.70
2018-01-16T08:35:47.248Z,87.80
2018-01-16T08:38:13.643Z,87.40
2018-01-16T08:40:40.043Z,87.30
2018-01-16T08:43:06.409Z,85.40
2018-01-16T08:45:32.794Z,83.40
2018-01-16T08:47:59.201Z,83.40
2018-01-16T08:50:25.570Z,86.00
2018-01-16T08:52:51.999Z,85.90
2018-01-16T08:55:18.433Z,86.90
2018-01-16T08:57:44.850Z,87.90
2018-01-16T09:00:11.339Z,87.50
2018-01-16T09:02:38.519Z,86.50
2018-01-16T09:05:04.967Z,85.80
2018-01-16T09:07:31.366Z,85.40
2018-01-16T09:09:58.449Z,84.90
2018-01-16T09:12:24.837Z,84.90
2018-01-16T09:14:52.077Z,84.40
2018-01-16T09:17:18.442Z,84.40
2018-01-16T09:19:44.830Z,86.60
2018-01-16T09:22:11.279Z,88.50
2018-01-16T09:24:38.437Z,90.10
2018-01-16T09:27:05.558Z,89.80
2018-01-16T09:29:31.962Z,89.70
2018-01-16T09:31:58.342Z,88.80
2018-01-16T09:34:24.775Z,88.30
2018-01-16T09:36:51.149Z,88.40
2018-01-16T09:39:17.563Z,87.90
2018-01-16T09:41:44.706Z,87.40
2018-01-16T09:44:11.870Z,87.00
2018-01-16T09:46:38.250Z,87.00
2018-01-16T09:49:04.834Z,86.40
2018-01-16T09:51:31.222Z,86.50
2018-01-16T09:53:57.622Z,86.50
2018-01-16T09:56:24.022Z,86.20
2018-01-16T09:58:51.147Z,84.60
2018-01-16T10:01:17.530Z,84.60
2018-01-16T10:03:43.930Z,85.00
2018-01-16T10:06:11.055Z,85.50
2018-01-16T10:08:37.469Z,85.40
2018-01-16T10:11:03.834Z,85.50
2018-01-16T10:13:30.957Z,86.90
2018-01-16T10:15:57.336Z,86.80
2018-01-16T10:18:23.725Z,86.30
2018-01-16T10:20:50.122Z,86.70
2018-01-16T10:23:16.515Z,86.50
2018-01-16T10:25:43.658Z,87.10
2018-01-16T10:28:10.803Z,87.10
2018-01-16T10:30:37.189Z,87.10
2018-01-16T10:33:03.625Z,87.90
2018-01-16T10:35:30.003Z,87.20
2018-01-16T10:37:56.386Z,87.40
2018-01-16T10:40:22.786Z,87.70
2018-01-16T10:42:49.875Z,87.20
2018-01-16T10:45:16.270Z,87.20
2018-01-16T10:47:42.673Z,87.50
2018-01-16T10:50:09.037Z,87.40
2018-01-16T10:52:35.423Z,87.30
2018-01-16T10:55:01.798Z,87.50
2018-01-16T10:57:28.179Z,87.00
2018-01-16T10:59:54.563Z,87.10
2018-01-16T11:02:20.950Z,87.50
2018-01-16T11:04:47.333Z,87.50
2018-01-16T11:07:13.721Z,87.60
2018-01-16T11:09:40.097Z,88.00
2018-01-16T11:12:06.527Z,88.70
2018-01-16T11:14:32.953Z,88.00
2018-01-16T11:16:59.407Z,87.50
2018-01-16T11:19:25.779Z,87.90
2018-01-16T11:21:52.158Z,87.90
2018-01-16T11:24:18.544Z,87.60
2018-01-16T11:26:44.964Z,87.70
2018-01-16T11:29:11.366Z,87.30
2018-01-16T11:31:37.751Z,87.00
2018-01-16T11:34:04.222Z,86.70
2018-01-16T11:36:30.708Z,86.30
2018-01-16T11:38:57.872Z,86.70
2018-01-16T11:41:24.981Z,87.30
2018-01-16T11:43:51.351Z,87.20
2018-01-16T11:46:18.478Z,86.80
2018-01-16T11:48:44.875Z,86.80
2018-01-16T11:51:11.242Z,86.80
2018-01-16T11:53:37.619Z,86.50
2018-01-16T11:56:04.014Z,87.40
2018-01-16T11:58:31.914Z,86.30
2018-01-16T12:00:59.042Z,86.30
2018-01-16T12:03:26.153Z,85.90
2018-01-16T12:05:52.575Z,85.90
2018-01-16T12:08:18.941Z,86.40
2018-01-16T12:10:45.292Z,86.90
2018-01-16T12:13:12.406Z,86.50
2018-01-16T12:15:38.825Z,86.50
2018-01-16T12:18:05.214Z,86.10
2018-01-16T12:20:32.320Z,86.80
2018-01-16T12:22:58.711Z,86.80
2018-01-16T12:25:25.090Z,86.10
2018-01-16T12:27:52.966Z,86.30
2018-01-16T12:30:19.412Z,86.30
2018-01-16T12:32:46.545Z,87.00
2018-01-16T12:35:12.994Z,86.90
2018-01-16T12:37:40.123Z,87.50
2018-01-16T12:40:06.576Z,87.40
2018-01-16T12:42:33.701Z,87.30
2018-01-16T12:45:00.208Z,87.30
2018-01-16T12:47:26.657Z,87.10
2018-01-16T12:49:53.030Z,87.50
2018-01-16T12:52:20.162Z,88.40
2018-01-16T12:54:48.135Z,89.50
2018-01-16T12:57:15.241Z,89.00
2018-01-16T12:59:41.614Z,89.00
2018-01-16T13:02:09.226Z,89.60
2018-01-16T13:04:35.646Z,89.60
2018-01-16T13:07:02.034Z,89.90
2018-01-16T13:09:28.407Z,90.10
2018-01-16T13:11:54.803Z,90.00
2018-01-16T13:14:21.933Z,90.00
2018-01-16T13:16:48.307Z,90.00
2018-01-16T13:19:15.430Z,89.40
2018-01-16T13:21:41.799Z,89.40
2018-01-16T13:24:08.180Z,88.60
2018-01-16T13:26:34.613Z,88.50
2018-01-16T13:29:01.025Z,89.10
2018-01-16T13:31:27.460Z,89.10
2018-01-16T13:33:53.950Z,89.10
2018-01-16T13:36:20.313Z,89.70
2018-01-16T13:38:46.695Z,89.50
2018-01-16T13:41:13.153Z,89.10
2018-01-16T13:43:39.550Z,89.10
2018-01-16T13:46:05.966Z,88.80
2018-01-16T13:48:32.349Z,89.70
2018-01-16T13:50:58.779Z,90.00
2018-01-16T13:53:25.922Z,91.00
2018-01-16T13:55:53.067Z,91.40
2018-01-16T13:58:20.300Z,91.60
2018-01-16T14:00:47.451Z,91.80
2018-01-16T14:03:13.829Z,91.80
2018-01-16T14:05:40.242Z,92.30
2018-01-16T14:08:07.358Z,92.40
2018-01-16T14:10:33.734Z,92.40
2018-01-16T14:13:00.156Z,92.10
2018-01-16T14:15:26.538Z,91.70
2018-01-16T14:17:52.924Z,91.50
2018-01-16T14:20:19.357Z,91.30
2018-01-16T14:22:45.742Z,91.20
2018-01-16T14:25:12.167Z,91.10
2018-01-16T14:27:38.570Z,91.00
2018-01-16T14:30:04.952Z,90.80
2018-01-16T14:32:31.399Z,90.90
2018-01-16T14:34:58.534Z,91.10
2018-01-16T14:37:25.022Z,91.10
2018-01-16T14:39:51.639Z,91.30
2018-01-16T14:42:18.075Z,91.80
2018-01-16T14:44:44.518Z,91.70
2018-01-16T14:47:11.661Z,91.60
2018-01-16T14:49:38.056Z,91.50
2018-01-16T14:52:04.448Z,91.80
2018-01-16T14:54:30.884Z,91.80
2018-01-16T14:56:57.259Z,91.70
2018-01-16T14:59:24.472Z,91.40
2018-01-16T15:01:50.862Z,91.40
2018-01-16T15:04:17.238Z,91.10
2018-01-16T15:06:43.621Z,91.20
2018-01-16T17:01:53.108Z,99.40
2018-01-16T17:04:19.571Z,99.80
2018-01-16T17:06:45.942Z,98.80
2018-01-16T17:09:12.349Z,97.40
2018-01-16T17:11:38.718Z,96.50
2018-01-16T17:14:05.856Z,94.60
2018-01-16T17:16:32.239Z,94.30
2018-01-16T17:18:58.656Z,94.20
2018-01-16T17:21:25.046Z,93.40
2018-01-16T17:23:51.490Z,93.30
2018-01-16T17:26:18.630Z,93.30
2018-01-16T17:28:45.730Z,93.20
2018-01-16T17:31:12.156Z,93.10
2018-01-16T17:33:38.578Z,92.80
2018-01-16T17:36:04.958Z,92.80
2018-01-16T17:38:31.394Z,92.80
2018-01-16T17:40:57.774Z,92.50
2018-01-16T17:43:24.927Z,92.50
2018-01-16T17:45:51.313Z,92.50
2018-01-16T17:48:17.681Z,92.50
2018-01-16T17:50:44.838Z,91.90
2018-01-16T17:53:11.270Z,91.90
2018-01-16T17:55:37.666Z,91.80
2018-01-16T17:58:04.049Z,91.60
2018-01-16T18:00:30.434Z,91.70
2018-01-16T18:02:56.838Z,91.80
2018-01-16T18:05:23.248Z,92.20
2018-01-16T18:07:49.685Z,91.70
2018-01-16T18:10:16.815Z,91.00
2018-01-16T18:12:43.210Z,91.00
2018-01-16T18:15:09.618Z,90.50
2018-01-16T18:17:35.976Z,90.20
2018-01-16T18:20:03.136Z,90.00
2018-01-16T18:22:30.276Z,90.10
2018-01-16T18:24:56.712Z,90.00
2018-01-16T18:27:23.114Z,90.10
2018-01-16T18:29:49.492Z,90.00
2018-01-16T18:32:16.661Z,90.20
2018-01-16T18:34:43.159Z,90.20
2018-01-16T18:37:10.289Z,89.50
2018-01-16T18:39:36.655Z,89.50
2018-01-16T18:42:03.771Z,89.20
2018-01-16T18:44:30.167Z,89.20
2018-01-16T18:46:56.553Z,88.70
2018-01-16T18:49:22.934Z,88.90
2018-01-16T18:51:49.356Z,88.70
2018-01-16T18:54:15.769Z,89.40
2018-01-16T18:56:42.873Z,89.50
2018-01-16T18:59:09.261Z,89.40
2018-01-16T19:01:35.630Z,89.00
2018-01-16T19:04:01.997Z,89.20
2018-01-16T19:06:29.316Z,89.20
2018-01-16T19:08:55.708Z,89.10
2018-01-16T19:11:22.092Z,89.10
2018-01-16T19:13:48.460Z,88.60
2018-01-16T19:16:15.627Z,89.10
2018-01-16T19:18:42.039Z,89.20
2018-01-16T19:21:09.156Z,89.70
2018-01-16T19:23:35.550Z,89.70
2018-01-16T19:26:02.696Z,90.20
2018-01-16T19:28:29.108Z,89.90
2018-01-16T19:30:56.238Z,88.80
2018-01-16T19:33:22.607Z,88.80
2018-01-16T19:35:49.017Z,89.00
2018-01-16T19:38:15.448Z,88.90
2018-01-16T19:40:42.567Z,88.40
2018-01-16T19:43:08.962Z,88.40
2018-01-16T19:45:35.384Z,88.90
2018-01-16T19:48:01.805Z,89.00
2018-01-16T19:50:28.183Z,89.00
2018-01-16T19:52:54.557Z,88.50
2018-01-16T19:55:21.822Z,87.50
2018-01-16T19:57:48.999Z,86.90
2018-01-16T20:00:15.375Z,86.90
2018-01-16T20:02:42.479Z,87.50
2018-01-16T20:05:08.877Z,87.80
2018-01-16T20:07:35.998Z,89.40
2018-01-16T20:10:03.894Z,88.10
2018-01-16T20:12:31.014Z,88.50
2018-01-16T20:14:58.155Z,88.50
2018-01-16T20:17:24.602Z,88.40
2018-01-16T20:19:51.844Z,88.10
2018-01-16T20:22:19.032Z,87.90
2018-01-16T20:24:46.145Z,87.70
2018-01-16T20:27:12.526Z,87.70
2018-01-16T20:29:38.919Z,87.20
2018-01-16T20:32:05.286Z,87.70
2018-01-16T20:34:31.675Z,88.10
2018-01-16T20:36:58.050Z,88.00
2018-01-16T20:39:24.456Z,88.00
2018-01-16T20:41:51.598Z,87.80
2018-01-16T20:44:18.714Z,87.90
2018-01-16T20:46:45.104Z,87.90
2018-01-16T20:49:12.234Z,87.20
2018-01-16T20:51:39.383Z,87.40
2018-01-16T20:54:06.503Z,88.00
2018-01-16T20:56:32.883Z,88.00
2018-01-16T20:58:59.281Z,87.90
2018-01-16T21:01:25.670Z,87.50
2018-01-16T21:03:52.050Z,87.30
2018-01-16T21:06:19.979Z,86.60
2018-01-16T21:08:46.356Z,87.20
2018-01-16T21:11:12.777Z,86.80
2018-01-16T21:13:39.178Z,86.60
2018-01-16T21:16:05.563Z,86.60
2018-01-16T21:18:32.678Z,86.50
2018-01-16T21:20:59.052Z,86.50
2018-01-16T21:23:26.182Z,86.50
2018-01-16T21:25:53.306Z,87.20
2018-01-16T21:28:19.686Z,87.20
2018-01-16T21:30:46.055Z,87.30
2018-01-16T21:33:12.562Z,87.10
2018-01-16T21:35:38.959Z,86.90
2018-01-16T21:38:06.116Z,86.70
2018-01-16T21:40:33.243Z,86.10
2018-01-16T21:42:59.714Z,86.10
2018-01-16T21:45:26.102Z,86.60
2018-01-16T21:47:52.450Z,86.20
2018-01-16T21:50:18.829Z,86.10
2018-01-16T21:52:45.219Z,86.50
2018-01-16T21:55:11.602Z,87.20
2018-01-16T21:57:38.040Z,87.40
2018-01-16T22:00:04.436Z,87.30
2018-01-16T22:02:31.542Z,87.10
2018-01-16T22:04:57.932Z,87.10
2018-01-16T22:07:24.313Z,87.30
2018-01-16T22:09:52.178Z,86.90
2018-01-16T22:12:18.582Z,86.90
2018-01-16T22:14:44.979Z,86.30
2018-01-16T22:17:11.401Z,86.60
2018-01-16T22:19:38.522Z,86.40
2018-01-16T22:22:04.941Z,86.40
2018-01-16T22:24:31.375Z,86.80
2018-01-16T22:26:57.761Z,87.20
2018-01-16T22:29:24.149Z,87.10
2018-01-16T22:31:50.566Z,87.00
2018-01-16T22:34:17.015Z,86.70
2018-01-16T22:36:43.413Z,86.50
2018-01-16T22:39:09.798Z,87.00
2018-01-16T22:41:37.197Z,86.70
2018-01-16T22:44:03.622Z,86.90
2018-01-16T22:46:30.014Z,86.50
2018-01-16T22:48:57.136Z,87.20
2018-01-16T22:51:23.526Z,86.50
2018-01-16T22:53:49.981Z,86.20
2018-01-16T22:56:16.387Z,86.40
2018-01-16T22:58:42.774Z,86.70
2018-01-16T23:01:09.182Z,86.50
2018-01-16T23:03:35.559Z,86.20
2018-01-16T23:06:01.945Z,86.30
2018-01-16T23:08:28.322Z,86.30
2018-01-16T23:10:54.697Z,86.30
2018-01-16T23:13:21.090Z,86.30
2018-01-16T23:15:48.221Z,86.50
2018-01-16T23:18:14.609Z,86.50
2018-01-16T23:20:41.055Z,86.60
2018-01-16T23:23:07.438Z,87.10
2018-01-16T23:25:33.805Z,87.50
2018-01-16T23:28:00.176Z,88.00
2018-01-16T23:30:28.056Z,88.20
2018-01-16T23:32:54.427Z,88.20
2018-01-16T23:35:20.984Z,88.50
2018-01-16T23:37:47.387Z,88.40
2018-01-16T23:40:13.783Z,89.00
2018-01-16T23:42:40.178Z,89.50
2018-01-16T23:45:06.562Z,90.00
2018-01-16T23:47:33.796Z,90.00
2018-01-16T23:50:00.191Z,90.00
2018-01-16T23:52:26.730Z,90.00
2018-01-16T23:54:53.257Z,89.50
2018-01-16T23:57:19.654Z,89.20
2018-01-16T23:59:46.780Z,89.10
